Time;durP1;ratioP1;P1;durP2;ratioP2;P2;SDS_P1;SDS_P2;PMS_P1;PMS_P2;Temp;Humidity;BMP_temperature;BMP_pressure;BME280_temperature;BME280_humidity;BME280_pressure;Samples;Min_cycle;Max_cycle;Signal;HPM_P1;HPM_P2
2022/10/07 00:01:55;;;;;;;10.23;6.20;;;;;;;22.91;58.92;98632.94;5047277;28;20201;-31
2022/10/07 00:04:22;;;;;;;12.17;7.10;;;;;;;22.93;58.84;98639.00;5048040;28;20208;-31
2022/10/07 00:06:48;;;;;;;11.20;6.63;;;;;;;22.92;58.96;98639.81;5042662;28;20220;-31
2022/10/07 00:09:15;;;;;;;11.67;6.33;;;;;;;22.92;58.76;98633.00;5051517;28;20216;-31
2022/10/07 00:11:41;;;;;;;9.70;6.13;;;;;;;22.92;58.71;98632.13;5049178;28;20201;-31
2022/10/07 00:14:08;;;;;;;10.40;5.97;;;;;;;22.92;58.85;98627.00;5039268;28;20200;-31
2022/10/07 00:16:39;;;;;;;9.47;5.97;;;;;;;22.92;58.92;98629.56;5048180;28;20646;-31
2022/10/07 00:19:09;;;;;;;12.37;6.70;;;;;;;22.90;58.65;98619.25;5046478;28;20749;-31
2022/10/07 00:21:36;;;;;;;10.17;6.40;;;;;;;22.92;58.94;98629.56;5048475;28;20591;-31
2022/10/07 00:24:03;;;;;;;13.03;6.90;;;;;;;22.92;59.01;98627.00;5047876;28;20198;-31
2022/10/07 00:26:31;;;;;;;11.07;6.37;;;;;;;22.92;58.86;98630.44;5051613;28;20241;-31
2022/10/07 00:28:57;;;;;;;10.50;6.57;;;;;;;22.92;58.86;98627.00;5052482;28;20211;-31
2022/10/07 00:31:28;;;;;;;10.93;5.87;;;;;;;22.92;58.94;98616.75;5055528;28;20219;-31
2022/10/07 00:33:55;;;;;;;9.33;5.83;;;;;;;22.92;58.87;98630.44;5050219;28;20223;-31
2022/10/07 00:36:30;;;;;;;11.37;7.03;;;;;;;22.92;58.85;98611.63;5051547;28;20816;-31
2022/10/07 00:39:02;;;;;;;9.07;6.20;;;;;;;22.92;58.88;98614.19;5051900;28;20200;-31
2022/10/07 00:41:33;;;;;;;10.47;6.17;;;;;;;22.90;58.90;98606.44;5052909;28;20212;-31
2022/10/07 00:44:20;;;;;;;11.90;7.00;;;;;;;22.92;58.92;98616.75;5050014;28;20192;-31
2022/10/07 00:46:47;;;;;;;10.67;6.13;;;;;;;22.87;58.92;98601.19;5049142;28;20231;-31
2022/10/07 00:49:14;;;;;;;9.50;5.90;;;;;;;22.91;58.86;98604.72;5047252;28;20576;-31
2022/10/07 00:51:41;;;;;;;11.13;6.47;;;;;;;22.92;58.93;98598.81;5055251;28;20213;-31
2022/10/07 00:54:10;;;;;;;11.10;6.10;;;;;;;22.91;59.01;98581.66;5050399;28;20225;-31
2022/10/07 00:56:36;;;;;;;9.57;6.00;;;;;;;22.88;59.15;98581.53;5032015;28;20243;-31
2022/10/07 00:59:04;;;;;;;9.57;5.67;;;;;;;22.91;59.15;98594.47;5050380;28;20212;-31
2022/10/07 01:01:31;;;;;;;10.60;5.80;;;;;;;22.91;59.01;98582.53;5054858;28;20201;-31
2022/10/07 01:03:57;;;;;;;8.43;5.70;;;;;;;22.91;59.04;98582.53;5052000;28;20660;-31
2022/10/07 01:06:24;;;;;;;8.13;5.43;;;;;;;22.91;59.09;98579.09;5049719;28;20220;-31
2022/10/07 01:08:51;;;;;;;9.50;5.97;;;;;;;22.85;58.93;98569.47;5050234;28;20208;-31
2022/10/07 01:11:27;;;;;;;10.53;6.03;;;;;;;22.91;58.92;98566.28;5039931;28;20207;-31
2022/10/07 01:14:31;;;;;;;10.53;6.40;;;;;;;22.91;58.97;98564.59;5052514;28;20220;-31
2022/10/07 01:17:19;;;;;;;7.70;5.20;;;;;;;22.91;58.89;98558.59;5050188;28;20228;-31
2022/10/07 01:20:06;;;;;;;10.97;6.10;;;;;;;22.92;59.04;98556.09;5056000;28;20209;-31
2022/10/07 01:22:58;;;;;;;11.60;6.27;;;;;;;22.91;58.93;98548.34;5044744;28;20200;-31
2022/10/07 01:25:58;;;;;;;8.03;5.23;;;;;;;22.91;58.94;98550.91;5050879;28;20211;-31
2022/10/07 01:28:28;;;;;;;9.47;5.60;;;;;;;22.91;58.84;98545.75;5046950;28;20207;-31
2022/10/07 01:30:57;;;;;;;8.57;5.47;;;;;;;22.91;58.71;98548.34;5033469;28;20204;-31
2022/10/07 01:33:26;;;;;;;11.17;5.90;;;;;;;22.85;58.87;98527.59;5048979;28;20220;-31
2022/10/07 01:35:53;;;;;;;9.63;6.07;;;;;;;22.83;58.90;98530.09;5030361;28;20225;-31
2022/10/07 01:38:20;;;;;;;9.47;5.90;;;;;;;22.91;58.97;98543.19;5025614;28;20209;-31
2022/10/07 01:40:53;;;;;;;8.43;5.33;;;;;;;22.90;58.99;98536.34;5047271;28;20220;-31
2022/10/07 01:43:19;;;;;;;8.97;5.70;;;;;;;22.91;59.02;98532.94;5038128;28;20211;-31
2022/10/07 01:45:47;;;;;;;8.93;5.33;;;;;;;22.91;59.06;98530.38;5053651;28;20220;-31
2022/10/07 01:48:14;;;;;;;10.10;5.97;;;;;;;22.91;58.95;98535.50;5050057;28;20211;-31
2022/10/07 01:50:41;;;;;;;9.53;5.77;;;;;;;22.85;58.98;98512.19;5032800;28;20206;-31
2022/10/07 01:53:29;;;;;;;9.50;5.73;;;;;;;22.91;59.06;98530.38;5055040;28;20588;-31
2022/10/07 01:56:25;;;;;;;9.33;6.00;;;;;;;22.91;58.93;98527.81;5053427;28;20240;-31
2022/10/07 01:59:07;;;;;;;10.77;6.40;;;;;;;22.92;58.99;98527.03;5048326;28;20197;-31
2022/10/07 02:01:55;;;;;;;9.27;5.93;;;;;;;22.91;59.12;98527.81;5051034;28;20204;-30
2022/10/07 02:04:30;;;;;;;8.40;5.60;;;;;;;22.91;58.88;98520.13;5044880;28;20201;-31
2022/10/07 02:07:15;;;;;;;8.77;5.40;;;;;;;22.90;59.02;98514.16;5051133;28;20220;-31
2022/10/07 02:10:03;;;;;;;7.30;5.23;;;;;;;22.91;58.97;98517.56;5050088;28;20564;-31
2022/10/07 02:12:47;;;;;;;8.43;5.57;;;;;;;22.82;58.90;98500.16;5049190;28;20211;-31
2022/10/07 02:15:22;;;;;;;9.47;5.60;;;;;;;22.90;58.90;98511.59;5049604;28;20209;-31
2022/10/07 02:17:53;;;;;;;9.10;5.70;;;;;;;22.81;59.06;98488.16;5062817;28;20212;-31
2022/10/07 02:20:20;;;;;;;7.93;4.90;;;;;;;22.90;58.92;98497.88;5045920;28;20205;-31
2022/10/07 02:22:46;;;;;;;8.00;5.23;;;;;;;22.90;58.88;98498.78;5048150;28;20201;-31
2022/10/07 02:25:13;;;;;;;8.87;5.50;;;;;;;22.88;58.93;98489.25;5049463;28;20209;-32
2022/10/07 02:27:40;;;;;;;10.97;6.03;;;;;;;22.83;59.05;98480.53;5042648;28;20208;-31
2022/10/07 02:30:12;;;;;;;9.37;5.73;;;;;;;22.82;58.79;98479.63;5049311;28;20204;-31
2022/10/07 02:32:41;;;;;;;7.80;5.57;;;;;;;22.90;58.96;98493.66;5032735;28;20217;-31
2022/10/07 02:35:16;;;;;;;8.60;5.30;;;;;;;22.80;58.91;98471.00;5040275;28;20205;-31
2022/10/07 02:37:42;;;;;;;9.57;5.60;;;;;;;22.84;58.94;98475.47;5048361;28;20212;-31
2022/10/07 02:40:09;;;;;;;9.10;5.23;;;;;;;22.91;58.97;98476.56;5040500;28;20204;-31
2022/10/07 02:42:44;;;;;;;8.67;5.17;;;;;;;22.90;59.04;98483.38;5031042;28;20622;-31
2022/10/07 02:45:27;;;;;;;9.10;5.67;;;;;;;22.90;58.92;98470.56;5047401;28;20212;-31
2022/10/07 02:48:03;;;;;;;8.40;5.00;;;;;;;22.91;58.88;98472.31;5033981;28;20208;-31
2022/10/07 02:50:34;;;;;;;6.97;4.57;;;;;;;22.91;58.81;98479.13;5031615;28;20764;-31
2022/10/07 02:53:00;;;;;;;6.67;4.70;;;;;;;22.92;58.97;98480.88;5047068;28;20243;-31
2022/10/07 02:55:27;;;;;;;9.03;5.80;;;;;;;22.92;58.93;98475.75;5047811;28;20690;-31
2022/10/07 02:57:56;;;;;;;8.60;5.00;;;;;;;22.89;58.91;98476.50;5056344;28;20528;-31
2022/10/07 03:00:23;;;;;;;7.80;4.90;;;;;;;22.93;58.83;98477.50;5028752;28;20223;-31
2022/10/07 03:02:49;;;;;;;8.20;4.97;;;;;;;22.92;58.94;98479.19;5048892;28;20707;-31
2022/10/07 03:05:18;;;;;;;7.43;5.20;;;;;;;22.92;58.95;98481.75;5048611;28;20204;-31
2022/10/07 03:07:50;;;;;;;6.87;4.97;;;;;;;22.82;58.95;98453.13;5047171;28;20204;-31
2022/10/07 03:10:16;;;;;;;6.83;5.03;;;;;;;22.93;58.93;98475.81;5044328;28;20254;-31
2022/10/07 03:12:44;;;;;;;7.37;4.70;;;;;;;22.91;58.90;98479.13;5048388;28;20205;-31
2022/10/07 03:15:10;;;;;;;7.97;5.50;;;;;;;22.92;58.97;98471.47;5045354;28;20197;-31
2022/10/07 03:17:40;;;;;;;7.73;5.10;;;;;;;22.94;59.00;98474.09;5050437;28;20207;-30
2022/10/07 03:20:08;;;;;;;7.90;5.10;;;;;;;22.94;58.98;98467.31;5047365;28;20262;-31
2022/10/07 03:22:34;;;;;;;8.50;5.33;;;;;;;22.76;59.03;98433.28;5048986;28;20225;-31
2022/10/07 03:25:01;;;;;;;7.20;5.07;;;;;;;22.94;59.33;98462.16;5048333;28;20208;-31
2022/10/07 03:27:28;;;;;;;6.67;4.70;;;;;;;22.95;59.05;98461.34;5071688;22;20227;-23
2022/10/07 03:29:57;;;;;;;7.20;4.60;;;;;;;22.95;58.92;98463.06;5058894;28;20583;-24
2022/10/07 03:32:26;;;;;;;6.27;4.10;;;;;;;22.96;58.88;98462.22;5067074;28;20579;-23
2022/10/07 03:34:53;;;;;;;6.93;4.83;;;;;;;22.96;58.93;98460.56;5058488;28;20224;-23
2022/10/07 03:37:21;;;;;;;7.83;5.20;;;;;;;22.96;58.93;98465.69;5058850;28;20223;-24
2022/10/07 03:39:47;;;;;;;6.60;4.67;;;;;;;22.97;58.59;98462.28;5066630;28;20211;-23
2022/10/07 03:42:14;;;;;;;7.40;5.20;;;;;;;22.95;58.93;98458.78;5066520;28;20589;-23
2022/10/07 03:44:41;;;;;;;7.30;4.87;;;;;;;22.97;58.86;98454.59;5067038;28;20279;-22
2022/10/07 03:47:08;;;;;;;7.00;4.60;;;;;;;22.97;59.08;98457.16;5064269;28;20485;-23
2022/10/07 03:49:37;;;;;;;6.53;4.70;;;;;;;22.98;58.88;98460.63;5066679;28;20295;-23
2022/10/07 03:52:05;;;;;;;6.40;4.70;;;;;;;22.98;58.73;98452.91;5067231;28;20474;-23
2022/10/07 03:54:32;;;;;;;7.27;4.57;;;;;;;22.98;58.80;98452.91;5067287;28;20224;-23
2022/10/07 03:56:59;;;;;;;5.73;4.37;;;;;;;22.98;58.79;98448.66;5066432;28;20595;-23
2022/10/07 03:59:25;;;;;;;6.37;4.33;;;;;;;22.98;58.80;98446.09;5066862;28;20214;-23
2022/10/07 04:01:52;;;;;;;7.40;4.57;;;;;;;22.98;58.87;98447.78;5064081;28;20215;-23
2022/10/07 04:04:19;;;;;;;7.03;4.57;;;;;;;22.98;58.74;98443.53;5066677;28;20284;-23
2022/10/07 04:06:45;;;;;;;6.73;4.40;;;;;;;22.99;58.77;98444.41;5066528;28;20228;-23
2022/10/07 04:09:12;;;;;;;6.87;4.43;;;;;;;23.00;58.87;98441.00;5066031;28;20560;-23
2022/10/07 04:11:40;;;;;;;6.40;4.47;;;;;;;22.93;58.86;98429.69;5067146;28;20290;-23
2022/10/07 04:14:07;;;;;;;7.20;4.53;;;;;;;22.99;58.89;98445.28;5065638;28;20227;-23
2022/10/07 04:16:33;;;;;;;6.50;4.20;;;;;;;23.00;58.71;98435.88;5066296;28;20238;-23
2022/10/07 04:19:04;;;;;;;8.27;4.73;;;;;;;23.00;58.75;98439.34;5065504;28;20235;-22
2022/10/07 04:21:31;;;;;;;6.13;4.77;;;;;;;23.00;58.93;98431.63;5065490;28;20211;-22
2022/10/07 04:23:57;;;;;;;6.43;4.50;;;;;;;23.01;59.00;98433.38;5066433;28;20228;-23
2022/10/07 04:26:24;;;;;;;6.80;4.57;;;;;;;22.90;58.77;98409.06;5066119;28;20230;-22
2022/10/07 04:28:50;;;;;;;5.40;4.30;;;;;;;23.00;58.89;98429.06;5066503;28;20714;-23
2022/10/07 04:31:17;;;;;;;6.60;4.13;;;;;;;23.02;58.51;98432.59;5065707;28;20211;-22
2022/10/07 04:33:45;;;;;;;6.57;4.67;;;;;;;23.03;58.81;98428.31;5066216;28;20227;-23
2022/10/07 04:36:11;;;;;;;4.83;4.13;;;;;;;23.03;58.75;98423.19;5064127;28;20605;-23
2022/10/07 04:38:38;;;;;;;5.77;4.20;;;;;;;23.02;58.69;98414.63;5066442;28;20196;-23
2022/10/07 04:41:05;;;;;;;5.47;3.70;;;;;;;23.02;58.83;98406.94;5066020;28;20657;-23
2022/10/07 04:43:35;;;;;;;4.90;3.93;;;;;;;23.03;58.65;98410.34;5060510;28;20196;-23
2022/10/07 04:46:03;;;;;;;5.83;4.17;;;;;;;23.03;58.89;98434.31;5065989;28;20200;-23
2022/10/07 04:48:29;;;;;;;6.73;4.50;;;;;;;23.04;58.75;98409.56;5066051;28;20228;-23
2022/10/07 04:51:03;;;;;;;6.63;4.67;;;;;;;23.04;58.72;98417.25;5065272;28;20211;-24
2022/10/07 04:53:30;;;;;;;6.63;4.47;;;;;;;23.04;58.52;98414.69;5063913;28;20636;-23
2022/10/07 04:55:57;;;;;;;7.13;4.67;;;;;;;23.04;58.63;98415.53;5066459;28;20287;-22
2022/10/07 04:58:23;;;;;;;7.57;4.53;;;;;;;23.05;58.84;98408.75;5066675;28;20227;-23
2022/10/07 05:00:51;;;;;;;5.37;4.23;;;;;;;23.05;58.74;98403.63;5059514;28;20493;-23
2022/10/07 05:03:18;;;;;;;10.97;4.83;;;;;;;23.05;58.60;98413.88;5066051;28;20636;-23
2022/10/07 05:05:46;;;;;;;7.80;4.47;;;;;;;23.06;58.39;98405.34;5073328;28;20664;-22
2022/10/07 05:08:14;;;;;;;5.47;3.77;;;;;;;23.05;57.57;98406.19;5064257;28;20257;-22
2022/10/07 05:10:41;;;;;;;6.97;3.43;;;;;;;23.05;56.45;98403.63;5064196;28;20204;-22
2022/10/07 05:13:11;;;;;;;5.27;3.17;;;;;;;23.04;55.74;98402.72;5069277;28;20205;-23
2022/10/07 05:15:46;;;;;;;6.43;2.97;;;;;;;23.04;55.13;98397.59;5068795;28;20219;-24
2022/10/07 05:18:13;;;;;;;7.80;3.10;;;;;;;23.04;55.18;98402.72;5070001;28;20709;-23
2022/10/07 05:20:41;;;;;;;4.20;3.40;;;;;;;23.04;55.53;98394.19;5069950;28;20208;-23
2022/10/07 05:23:08;;;;;;;7.83;3.40;;;;;;;23.02;55.61;98394.13;5061540;28;20212;-23
2022/10/07 05:25:34;;;;;;;4.57;3.20;;;;;;;23.02;55.78;98394.13;5069778;28;20200;-23
2022/10/07 05:28:01;;;;;;;3.77;3.07;;;;;;;23.01;56.14;98391.50;5069141;28;20290;-23
2022/10/07 05:30:27;;;;;;;11.23;3.67;;;;;;;23.00;56.41;98388.06;5069179;28;20228;-23
2022/10/07 05:32:54;;;;;;;5.13;3.53;;;;;;;22.98;57.17;98388.81;5067905;28;20200;-23
2022/10/07 05:35:21;;;;;;;4.73;3.20;;;;;;;23.00;56.91;98392.31;5069695;28;20216;-22
2022/10/07 05:37:52;;;;;;;4.77;3.30;;;;;;;22.95;57.18;98387.00;5064474;28;20436;-22
2022/10/07 05:40:19;;;;;;;5.73;3.47;;;;;;;23.02;57.18;98400.94;5058325;28;20204;-22
2022/10/07 05:42:46;;;;;;;4.07;2.83;;;;;;;23.00;57.26;98406.00;5063209;28;20201;-23
2022/10/07 05:45:12;;;;;;;4.27;3.20;;;;;;;23.01;57.10;98401.75;5064225;28;20201;-23
2022/10/07 05:47:39;;;;;;;6.03;3.20;;;;;;;23.01;57.19;98422.28;5068462;28;20224;-23
2022/10/07 05:50:06;;;;;;;5.93;3.20;;;;;;;23.02;57.27;98408.63;5069093;28;20200;-21
2022/10/07 05:52:34;;;;;;;5.53;3.10;;;;;;;23.02;57.31;98408.63;5068553;28;20698;-22
2022/10/07 05:55:01;;;;;;;4.23;3.50;;;;;;;23.03;57.33;98410.34;5068534;28;20707;-22
2022/10/07 05:57:27;;;;;;;6.73;3.20;;;;;;;23.02;57.43;98409.50;5069714;28;20741;-23
2022/10/07 05:59:55;;;;;;;3.93;3.00;;;;;;;22.97;57.42;98393.06;5067174;28;20204;-23
2022/10/07 06:02:21;;;;;;;4.47;3.20;;;;;;;23.03;57.26;98406.13;5068989;28;20200;-23
2022/10/07 06:04:48;;;;;;;6.77;3.50;;;;;;;22.99;57.44;98398.25;5068433;28;20200;-22
2022/10/07 06:07:15;;;;;;;6.50;4.00;;;;;;;23.04;56.79;98407.84;5068770;28;20224;-23
2022/10/07 06:15:16;;;;;;;9.80;4.43;;;;;;;23.06;55.96;98397.66;5068259;28;20737;-23
2022/10/07 06:17:43;;;;;;;6.93;4.23;;;;;;;22.98;56.09;98384.56;5058663;28;20882;-22
2022/10/07 06:20:13;;;;;;;7.60;3.90;;;;;;;22.95;56.07;98371.63;5059099;28;20200;-22
2022/10/07 06:22:41;;;;;;;6.50;3.37;;;;;;;23.03;56.61;98393.28;5060938;28;20215;-23
2022/10/07 06:25:08;;;;;;;5.43;3.33;;;;;;;23.04;56.52;98392.47;5068904;28;20200;-23
2022/10/07 06:27:34;;;;;;;6.57;3.80;;;;;;;23.05;56.67;98389.09;5068949;28;20231;-23
2022/10/07 06:30:01;;;;;;;4.53;3.73;;;;;;;23.04;56.95;98395.03;5055925;28;20219;-23
2022/10/07 06:32:29;;;;;;;4.87;3.50;;;;;;;22.99;56.96;98393.13;5068638;28;20219;-23
2022/10/07 06:34:56;;;;;;;6.20;3.60;;;;;;;23.05;56.95;98396.81;5061207;28;20269;-23
2022/10/07 06:37:22;;;;;;;5.90;3.70;;;;;;;23.00;56.92;98402.56;5068315;28;20726;-23
2022/10/07 06:39:49;;;;;;;6.53;3.93;;;;;;;23.05;56.92;98401.03;5067579;28;20663;-23
2022/10/07 06:42:16;;;;;;;8.83;4.23;;;;;;;23.07;55.66;98396.84;5067846;28;20200;-22
2022/10/07 06:44:42;;;;;;;8.53;4.00;;;;;;;23.06;55.59;98397.66;5067422;28;20201;-22
2022/10/07 06:47:09;;;;;;;4.03;3.47;;;;;;;23.07;56.00;98402.00;5060670;28;20230;-23
2022/10/07 06:49:37;;;;;;;10.43;4.37;;;;;;;23.01;56.19;98399.19;5067939;28;20231;-22
2022/10/07 06:52:04;;;;;;;6.10;3.90;;;;;;;22.99;56.30;98388.00;5067906;28;20196;-23
2022/10/07 06:54:30;;;;;;;5.07;3.63;;;;;;;23.05;56.43;98398.47;5068460;28;20754;-23
2022/10/07 06:56:57;;;;;;;6.40;3.87;;;;;;;23.06;56.62;98398.53;5067685;28;20216;-23
2022/10/07 06:59:23;;;;;;;5.63;3.83;;;;;;;23.07;56.70;98402.00;5068515;28;20228;-24
2022/10/07 07:01:50;;;;;;;4.50;3.70;;;;;;;23.06;56.77;98401.09;5067456;28;20690;-22
2022/10/07 07:04:16;;;;;;;5.10;3.27;;;;;;;23.07;56.81;98402.00;5067879;28;20201;-23
2022/10/07 07:06:43;;;;;;;4.57;3.27;;;;;;;23.06;56.80;98398.53;5060455;28;20236;-22
2022/10/07 07:09:10;;;;;;;5.20;3.70;;;;;;;23.06;57.04;98390.84;5062240;28;20204;-23
2022/10/07 07:11:36;;;;;;;8.67;3.97;;;;;;;22.95;56.97;98374.19;5068002;28;20207;-24
2022/10/07 07:14:03;;;;;;;4.33;3.20;;;;;;;23.06;56.98;98390.84;5067407;28;20224;-23
2022/10/07 07:16:30;;;;;;;6.10;3.60;;;;;;;23.08;56.92;98393.47;5065355;28;20207;-23
2022/10/07 07:18:58;;;;;;;5.83;3.70;;;;;;;23.08;56.97;98394.34;5064719;28;20303;-23
2022/10/07 07:21:27;;;;;;;6.77;3.83;;;;;;;23.08;56.74;98391.78;5059655;28;20200;-22
2022/10/07 07:23:54;;;;;;;7.07;3.53;;;;;;;23.03;55.87;98387.28;5068080;28;20257;-22
2022/10/07 07:26:20;;;;;;;5.50;3.47;;;;;;;23.08;56.11;98394.34;5064303;28;20208;-22
2022/10/07 07:28:54;;;;;;;6.40;3.70;;;;;;;23.05;56.18;98383.97;5057729;28;20556;-23
2022/10/07 07:31:20;;;;;;;15.50;3.50;;;;;;;23.07;56.78;98389.16;5054789;28;20916;-22
2022/10/07 07:33:51;;;;;;;5.53;3.37;;;;;;;23.09;56.45;98392.63;5056463;28;20204;-23
2022/10/07 07:36:21;;;;;;;4.47;3.30;;;;;;;23.08;56.45;98386.66;5055516;28;20201;-24
2022/10/07 07:38:55;;;;;;;6.50;3.47;;;;;;;23.09;56.57;98390.97;5053970;28;20275;-23
2022/10/07 07:41:24;;;;;;;4.80;3.53;;;;;;;23.09;56.64;98392.63;5056767;28;20204;-22
2022/10/07 07:43:52;;;;;;;5.23;3.50;;;;;;;23.09;56.75;98385.84;5057698;28;20223;-22
2022/10/07 07:46:20;;;;;;;6.10;3.80;;;;;;;23.10;56.61;98391.84;5054274;28;20215;-23
2022/10/07 07:48:48;;;;;;;4.30;3.40;;;;;;;23.09;56.79;98387.50;5061347;28;20327;-23
2022/10/07 07:51:16;;;;;;;6.17;3.30;;;;;;;23.10;56.88;98384.16;5066641;28;20200;-22
2022/10/07 07:53:43;;;;;;;4.40;3.33;;;;;;;23.09;56.82;98379.81;5067138;28;20196;-23
2022/10/07 07:56:10;;;;;;;4.20;3.20;;;;;;;22.81;56.73;98334.38;5063705;28;20223;-24
2022/10/07 07:58:37;;;;;;;5.53;2.97;;;;;;;23.04;56.81;98371.97;5065513;28;20210;-23
2022/10/07 08:01:04;;;;;;;4.37;3.13;;;;;;;23.09;57.01;98383.25;5066795;28;20592;-23
2022/10/07 08:03:32;;;;;;;4.60;3.10;;;;;;;23.10;56.94;98384.16;5065959;28;20204;-22
2022/10/07 08:06:00;;;;;;;19.03;3.73;;;;;;;23.10;57.27;98379.91;5067276;28;20212;-23
2022/10/07 08:08:28;;;;;;;19.37;4.63;;;;;;;22.89;57.21;98342.34;5067405;28;20734;-24
2022/10/07 08:10:55;;;;;;;50.10;5.73;;;;;;;23.10;57.45;98379.91;5067534;28;20196;-23
2022/10/07 08:13:22;;;;;;;91.53;8.43;;;;;;;23.11;57.90;98366.25;5067718;28;20583;-23
2022/10/07 08:15:54;;;;;;;134.97;11.27;;;;;;;23.12;58.22;98368.00;5067425;28;20230;-23
2022/10/07 08:18:21;;;;;;;103.03;9.70;;;;;;;23.12;58.19;98365.44;5061910;28;20221;-23
2022/10/07 08:20:58;;;;;;;153.97;13.90;;;;;;;23.14;58.40;98368.03;5066735;28;20204;-24
2022/10/07 08:23:25;;;;;;;119.77;11.30;;;;;;;23.15;58.29;98368.09;5066959;28;20689;-23
2022/10/07 08:25:54;;;;;;;203.77;16.83;;;;;;;23.17;58.81;98363.91;5062504;28;20713;-23
2022/10/07 08:28:20;;;;;;;198.77;18.97;;;;;;;23.19;58.83;98363.97;5064815;28;20242;-24
2022/10/07 08:30:48;;;;;;;232.67;22.40;;;;;;;23.20;59.10;98360.56;5067233;28;20624;-24
2022/10/07 08:33:14;;;;;;;164.37;18.37;;;;;;;23.22;59.37;98362.41;5065455;28;20283;-23
2022/10/07 08:35:41;;;;;;;274.30;22.03;;;;;;;23.23;59.85;98359.00;5066634;28;20520;-23
2022/10/07 08:38:08;;;;;;;176.30;18.73;;;;;;;23.25;59.23;98356.53;5065632;28;20871;-23
2022/10/07 08:40:49;;;;;;;353.43;30.10;;;;;;;23.21;59.18;98341.81;5067347;28;20471;-23
2022/10/07 08:43:20;;;;;;;603.13;48.80;;;;;;;23.27;59.49;98349.78;5065082;28;20581;-23
2022/10/07 08:45:46;;;;;;;423.30;35.93;;;;;;;23.18;59.72;98331.47;5061646;28;20205;-23
2022/10/07 08:48:23;;;;;;;565.97;51.10;;;;;;;23.07;59.93;98296.84;5080326;28;20982;-23
2022/10/07 08:50:58;;;;;;;479.10;43.87;;;;;;;23.27;59.33;98330.09;5067926;28;20204;-23
2022/10/07 08:53:29;;;;;;;375.73;37.77;;;;;;;23.33;59.92;98326.91;5072524;28;20621;-23
2022/10/07 08:56:06;;;;;;;286.23;28.00;;;;;;;23.35;60.04;98327.81;5068193;28;20219;-24
2022/10/07 08:58:47;;;;;;;307.83;27.80;;;;;;;23.38;60.39;98324.50;5069075;28;20228;-23
2022/10/07 09:01:30;;;;;;;291.60;27.17;;;;;;;23.38;59.98;98316.78;5061643;28;20196;-23
2022/10/07 09:04:19;;;;;;;248.93;25.03;;;;;;;23.29;60.40;98301.94;5070997;28;20675;-24
2022/10/07 09:07:10;;;;;;;197.07;22.63;;;;;;;23.41;60.71;98315.19;5069576;28;20714;-23
2022/10/07 09:09:38;;;;;;;183.87;21.20;;;;;;;23.42;60.46;98309.25;5069424;28;20616;-24
2022/10/07 09:12:08;;;;;;;191.13;21.73;;;;;;;23.44;59.96;98309.31;5061044;28;20855;-23
2022/10/07 09:14:39;;;;;;;148.43;19.20;;;;;;;23.32;60.52;98292.66;5069486;28;20239;-23
2022/10/07 09:17:16;;;;;;;147.77;17.67;;;;;;;23.45;60.59;98303.34;5068060;28;20220;-23
2022/10/07 09:19:48;;;;;;;153.33;19.00;;;;;;;23.46;60.76;98308.53;5069228;28;20199;-22
2022/10/07 09:22:23;;;;;;;143.50;16.70;;;;;;;23.46;60.35;98299.94;5065748;28;20214;-23
2022/10/07 09:24:53;;;;;;;140.53;16.80;;;;;;;23.47;60.57;98300.00;5069910;28;20203;-23
2022/10/07 09:27:21;;;;;;;122.63;15.90;;;;;;;23.48;60.61;98288.94;5077880;22;20725;-31
2022/10/07 09:29:50;;;;;;;103.27;15.47;;;;;;;23.49;60.52;98293.25;5050935;28;20209;-31
2022/10/07 09:32:17;;;;;;;111.37;16.97;;;;;;;23.41;60.60;98275.84;5051319;28;20201;-31
2022/10/07 09:34:44;;;;;;;106.73;16.10;;;;;;;23.51;60.26;98293.28;5029654;28;20251;-31
2022/10/07 09:37:21;;;;;;;71.30;12.13;;;;;;;23.53;60.47;98294.22;5051210;28;20223;-31
2022/10/07 09:39:57;;;;;;;83.20;12.50;;;;;;;23.52;57.75;98283.09;5049798;28;20331;-31
2022/10/07 09:42:30;;;;;;;80.90;12.27;;;;;;;23.47;57.68;98269.22;5032805;28;20504;-31
2022/10/07 09:45:00;;;;;;;82.80;12.97;;;;;;;23.42;57.94;98263.09;5017065;28;20204;-31
2022/10/07 09:47:29;;;;;;;62.73;11.07;;;;;;;23.42;57.99;98269.06;5032828;28;20707;-31
2022/10/07 09:49:58;;;;;;;44.30;10.23;;;;;;;23.50;57.80;98276.16;5021095;28;20691;-31
2022/10/07 09:52:26;;;;;;;31.90;8.13;;;;;;;23.51;57.49;98280.47;5050531;28;20211;-31
2022/10/07 09:54:54;;;;;;;31.73;7.17;;;;;;;23.50;57.17;98284.72;5049613;28;20628;-31
2022/10/07 09:57:32;;;;;;;34.50;8.10;;;;;;;23.48;57.29;98281.25;5043719;28;20619;-31
2022/10/07 10:00:11;;;;;;;44.63;8.10;;;;;;;23.47;57.45;98279.47;5047144;28;20202;-31
2022/10/07 10:02:39;;;;;;;38.00;8.20;;;;;;;23.44;57.88;98291.34;5048232;28;20219;-31
2022/10/07 10:05:27;;;;;;;29.03;6.03;;;;;;;23.42;57.75;98284.47;5027730;28;20583;-31
2022/10/07 10:08:13;;;;;;;32.37;8.73;;;;;;;23.33;57.88;98261.06;5030727;28;20216;-31
2022/10/07 10:10:39;;;;;;;40.40;8.30;;;;;;;23.38;58.28;98276.59;5054252;28;20211;-32
2022/10/07 10:13:21;;;;;;;31.23;8.37;;;;;;;23.37;58.20;98272.31;5013887;28;20197;-31
2022/10/07 10:15:47;;;;;;;30.97;7.80;;;;;;;23.34;58.33;98265.38;5027923;28;20229;-31
2022/10/07 10:18:29;;;;;;;29.53;6.63;;;;;;;23.32;58.06;98264.47;5031611;28;20217;-31
2022/10/07 10:21:18;;;;;;;32.90;7.43;;;;;;;23.32;58.15;98263.56;5049081;28;20205;-31
2022/10/07 10:23:46;;;;;;;32.43;8.30;;;;;;;23.26;58.22;98253.97;5032178;28;20219;-31
2022/10/07 10:26:24;;;;;;;33.33;7.73;;;;;;;23.30;58.49;98255.81;5032006;28;20200;-31
2022/10/07 10:29:05;;;;;;;32.13;6.47;;;;;;;23.30;58.36;98252.41;5034295;28;20240;-31
2022/10/07 10:31:57;;;;;;;40.50;7.67;;;;;;;23.28;58.37;98251.47;5044989;28;20201;-31
2022/10/07 10:34:53;;;;;;;34.97;7.07;;;;;;;23.27;58.68;98249.75;5019712;28;20205;-31
2022/10/07 10:37:27;;;;;;;22.73;6.60;;;;;;;23.25;58.63;98247.13;5046935;28;20216;-31
2022/10/07 10:39:56;;;;;;;30.63;7.00;;;;;;;23.23;58.49;98235.00;5055703;28;20502;-31
2022/10/07 10:42:37;;;;;;;28.17;6.90;;;;;;;23.24;58.50;98234.25;5040504;28;20284;-31
2022/10/07 10:45:13;;;;;;;20.50;6.37;;;;;;;23.22;58.50;98223.91;5033182;28;20861;-31
2022/10/07 10:47:49;;;;;;;19.97;6.07;;;;;;;23.14;58.64;98212.50;5049804;28;20600;-31
2022/10/07 10:50:42;;;;;;;21.30;6.07;;;;;;;23.12;58.54;98208.16;5055550;28;20211;-31
2022/10/07 10:53:15;;;;;;;26.63;6.67;;;;;;;23.19;58.63;98222.91;5029757;28;20204;-31
2022/10/07 10:56:13;;;;;;;20.83;5.70;;;;;;;23.19;58.67;98220.34;5047319;28;20225;-31
2022/10/07 10:59:12;;;;;;;25.30;6.37;;;;;;;23.18;58.51;98213.50;5022321;28;20749;-31
2022/10/07 11:01:40;;;;;;;19.27;5.93;;;;;;;23.14;58.61;98202.25;5016836;28;20212;-31
2022/10/07 11:04:34;;;;;;;19.37;6.13;;;;;;;23.17;58.68;98201.47;5021438;28;20201;-31
2022/10/07 11:07:34;;;;;;;21.30;6.90;;;;;;;23.13;58.77;98199.63;5038426;28;20232;-31
2022/10/07 11:10:29;;;;;;;20.27;5.97;;;;;;;23.16;58.65;98202.31;5037719;28;20205;-31
2022/10/07 11:12:57;;;;;;;19.00;5.27;;;;;;;23.11;58.74;98193.56;5026009;28;20211;-31
2022/10/07 11:15:28;;;;;;;16.00;5.90;;;;;;;23.14;58.77;98193.69;5000298;28;20214;-31
2022/10/07 11:17:57;;;;;;;18.60;5.60;;;;;;;23.13;59.01;98190.25;5050112;28;20255;-31
2022/10/07 11:20:47;;;;;;;20.30;6.07;;;;;;;23.12;58.73;98187.66;5005093;28;20205;-31
2022/10/07 11:23:43;;;;;;;15.70;5.10;;;;;;;23.12;58.97;98187.66;5033343;28;20232;-31
2022/10/07 11:26:37;;;;;;;15.27;5.27;;;;;;;23.05;58.79;98176.31;5036901;28;20201;-31
2022/10/07 11:29:28;;;;;;;14.13;4.77;;;;;;;23.04;58.79;98173.69;5040691;28;20608;-31
2022/10/07 11:32:01;;;;;;;13.17;5.67;;;;;;;23.11;58.86;98183.31;5028018;28;20204;-31
2022/10/07 11:34:53;;;;;;;12.63;4.63;;;;;;;23.10;58.63;98177.34;5028811;28;20755;-31
2022/10/07 11:37:40;;;;;;;18.37;4.63;;;;;;;23.09;59.09;98169.56;5045045;28;20217;-31
2022/10/07 11:40:07;;;;;;;19.43;4.83;;;;;;;23.10;58.71;98169.66;5031867;28;20203;-31
2022/10/07 11:42:41;;;;;;;18.03;5.17;;;;;;;23.00;58.90;98141.06;5028591;28;20208;-31
2022/10/07 11:45:11;;;;;;;17.50;4.93;;;;;;;23.06;58.99;98149.84;5011307;28;20197;-31
2022/10/07 11:47:40;;;;;;;14.57;4.93;;;;;;;23.09;58.93;98154.19;5032610;28;20240;-31
2022/10/07 11:50:13;;;;;;;12.03;4.50;;;;;;;23.09;59.14;98149.06;5049741;28;20207;-31
2022/10/07 11:52:41;;;;;;;15.30;4.67;;;;;;;23.03;58.98;98136.03;5048933;28;20213;-31